KZR209 UACC-RKSI
Flight info
| Callsign | KZR209 |
|---|---|
| Flight time | N/A |
| Altitude | 35000 |
| Route | BEDKA1B BEDKA T523 KRG M166 GORBO W348 AGZ M166 SARIN/K0837S1070 A368 FKG B215 NUKTI W66 DKO/K0828S1130 W69 HUR B339 LADIX W34 ANRAT A326 DONVO G597 AGAVO/N0447F370 Y644 RILRO DCT REBIT REBIT2H |
| Aircraft | A21N/M-SDE3FGHIRWY/LB1 |
Departure
| Time | 2026-04-25 16:32 |
|---|---|
| Airport | Nursultan Nazarbayev International Airport (UACC) |
Arrival
| Time | N/A |
|---|---|
| Airport | Incheon International Airport (RKSI) |
| Time | Latitude | Longitude | Altitude | Speed | Heading |
|---|---|---|---|---|---|
| 2026-04-25 16:03 | 51.02748 | 71.46461 | 1174 ft | 0 kts | 315° |
| 2026-04-25 16:21 | 51.02742 | 71.46472 | 1174 ft | 2 kts | 315° |
| 2026-04-25 16:21 | 51.02731 | 71.46489 | 1174 ft | 2 kts | 315° |
| 2026-04-25 16:21 | 51.02720 | 71.46506 | 1174 ft | 2 kts | 315° |
| 2026-04-25 16:21 | 51.02708 | 71.46519 | 1174 ft | 2 kts | 343° |
| 2026-04-25 16:22 | 51.02693 | 71.46523 | 1174 ft | 2 kts | 2° |
| 2026-04-25 16:22 | 51.02678 | 71.46517 | 1174 ft | 2 kts | 24° |
| 2026-04-25 16:22 | 51.02668 | 71.46507 | 1174 ft | 0 kts | 41° |
| 2026-04-25 16:22 | 51.02663 | 71.46500 | 1174 ft | 1 kts | 45° |
| 2026-04-25 16:23 | 51.02663 | 71.46499 | 1174 ft | 0 kts | 45° |
| 2026-04-25 16:24 | 51.02664 | 71.46501 | 1174 ft | 0 kts | 45° |
| 2026-04-25 16:25 | 51.02671 | 71.46513 | 1174 ft | 2 kts | 45° |
| 2026-04-25 16:25 | 51.02680 | 71.46526 | 1174 ft | 3 kts | 44° |
| 2026-04-25 16:25 | 51.02704 | 71.46571 | 1174 ft | 4 kts | 59° |
| 2026-04-25 16:25 | 51.02701 | 71.46624 | 1174 ft | 5 kts | 123° |
| 2026-04-25 16:26 | 51.02672 | 71.46676 | 1174 ft | 6 kts | 134° |
| 2026-04-25 16:26 | 51.02651 | 71.46743 | 1174 ft | 7 kts | 89° |
| 2026-04-25 16:26 | 51.02678 | 71.46813 | 1174 ft | 8 kts | 45° |
| 2026-04-25 16:26 | 51.02722 | 71.46882 | 1174 ft | 9 kts | 44° |
| 2026-04-25 16:27 | 51.02769 | 71.46955 | 1174 ft | 9 kts | 44° |
| 2026-04-25 16:27 | 51.02820 | 71.47036 | 1174 ft | 10 kts | 44° |
| 2026-04-25 16:27 | 51.02874 | 71.47120 | 1174 ft | 11 kts | 44° |
| 2026-04-25 16:27 | 51.02932 | 71.47210 | 1174 ft | 11 kts | 44° |
| 2026-04-25 16:28 | 51.02991 | 71.47303 | 1174 ft | 12 kts | 44° |
| 2026-04-25 16:28 | 51.03053 | 71.47399 | 1174 ft | 12 kts | 43° |
| 2026-04-25 16:28 | 51.03117 | 71.47499 | 1174 ft | 12 kts | 44° |
| 2026-04-25 16:28 | 51.03182 | 71.47601 | 1174 ft | 13 kts | 44° |
| 2026-04-25 16:29 | 51.03249 | 71.47704 | 1174 ft | 13 kts | 44° |
| 2026-04-25 16:29 | 51.03317 | 71.47810 | 1174 ft | 13 kts | 44° |
| 2026-04-25 16:29 | 51.03386 | 71.47918 | 1174 ft | 14 kts | 44° |
| 2026-04-25 16:29 | 51.03431 | 71.48050 | 1174 ft | 13 kts | 86° |
| 2026-04-25 16:30 | 51.03432 | 71.48203 | 1174 ft | 13 kts | 89° |
| 2026-04-25 16:30 | 51.03389 | 71.48328 | 1174 ft | 12 kts | 149° |
| 2026-04-25 16:30 | 51.03333 | 71.48302 | 1174 ft | 6 kts | 226° |
| 2026-04-25 16:30 | 51.03331 | 71.48298 | 1174 ft | 0 kts | 225° |
| 2026-04-25 16:31 | 51.03328 | 71.48294 | 1174 ft | 0 kts | 225° |
| 2026-04-25 16:31 | 51.03303 | 71.48254 | 1174 ft | 25 kts | 224° |
| 2026-04-25 16:31 | 51.02985 | 71.47761 | 1174 ft | 100 kts | 225° |
| 2026-04-25 16:31 | 51.02327 | 71.46724 | 1178 ft | 160 kts | 223° |
| 2026-04-25 16:32 | 51.01506 | 71.45423 | 1687 ft | 169 kts | 223° |
| 2026-04-25 16:32 | 51.00667 | 71.44101 | 2415 ft | 170 kts | 222° |
| 2026-04-25 16:32 | 50.99862 | 71.42844 | 3255 ft | 161 kts | 221° |
| 2026-04-25 16:32 | 50.99039 | 71.41574 | 3611 ft | 170 kts | 221° |
| 2026-04-25 16:33 | 50.98151 | 71.40209 | 3870 ft | 186 kts | 221° |
| 2026-04-25 16:33 | 50.97192 | 71.38728 | 4166 ft | 202 kts | 222° |
| 2026-04-25 16:33 | 50.96127 | 71.37074 | 4425 ft | 222 kts | 222° |
| 2026-04-25 16:33 | 50.95000 | 71.35336 | 4857 ft | 234 kts | 219° |
| 2026-04-25 16:34 | 50.93540 | 71.34113 | 5407 ft | 243 kts | 193° |
| 2026-04-25 16:34 | 50.91845 | 71.34147 | 6128 ft | 251 kts | 171° |
| 2026-04-25 16:34 | 50.90258 | 71.35419 | 6860 ft | 266 kts | 146° |
| 2026-04-25 16:34 | 50.88934 | 71.37534 | 7560 ft | 273 kts | 141° |
| 2026-04-25 16:35 | 50.87587 | 71.39680 | 8179 ft | 277 kts | 142° |
| 2026-04-25 16:35 | 50.86205 | 71.41852 | 8767 ft | 281 kts | 143° |
| 2026-04-25 16:35 | 50.84744 | 71.43929 | 9381 ft | 282 kts | 147° |
| 2026-04-25 16:35 | 50.83232 | 71.45952 | 10016 ft | 285 kts | 147° |
| 2026-04-25 16:36 | 50.81703 | 71.47984 | 10442 ft | 295 kts | 147° |
| 2026-04-25 16:36 | 50.81181 | 71.48676 | 10533 ft | 300 kts | 147° |
| 2026-04-25 16:36 | 50.78413 | 71.52351 | 10991 ft | 324 kts | 147° |
| 2026-04-25 16:36 | 50.76671 | 71.54676 | 11394 ft | 333 kts | 146° |
| 2026-04-25 16:37 | 50.74908 | 71.57029 | 11946 ft | 337 kts | 146° |
| 2026-04-25 16:37 | 50.73106 | 71.59435 | 12475 ft | 341 kts | 146° |
| 2026-04-25 16:37 | 50.71285 | 71.61865 | 12999 ft | 345 kts | 146° |
| 2026-04-25 16:37 | 50.69461 | 71.64290 | 13507 ft | 349 kts | 146° |
| 2026-04-25 16:38 | 50.67594 | 71.66769 | 14028 ft | 352 kts | 147° |
| 2026-04-25 16:38 | 50.65713 | 71.69264 | 14585 ft | 354 kts | 147° |
| 2026-04-25 16:38 | 50.63845 | 71.71735 | 15106 ft | 356 kts | 147° |
| 2026-04-25 16:38 | 50.61932 | 71.74267 | 15603 ft | 359 kts | 147° |
| 2026-04-25 16:39 | 50.60033 | 71.76775 | 16060 ft | 362 kts | 146° |
| 2026-04-25 16:39 | 50.58096 | 71.79333 | 16549 ft | 365 kts | 146° |
| 2026-04-25 16:39 | 50.56148 | 71.81905 | 17046 ft | 366 kts | 146° |
| 2026-04-25 16:39 | 50.54190 | 71.84483 | 17480 ft | 370 kts | 146° |
| 2026-04-25 16:40 | 50.52217 | 71.87080 | 17911 ft | 373 kts | 146° |
| 2026-04-25 16:40 | 50.50244 | 71.89677 | 18368 ft | 374 kts | 146° |
| 2026-04-25 16:40 | 50.48238 | 71.92313 | 18804 ft | 377 kts | 146° |
| 2026-04-25 16:40 | 50.46246 | 71.94928 | 19217 ft | 379 kts | 146° |
| 2026-04-25 16:41 | 50.44212 | 71.97591 | 19636 ft | 382 kts | 146° |
| 2026-04-25 16:41 | 50.42179 | 72.00253 | 20036 ft | 384 kts | 146° |
| 2026-04-25 16:41 | 50.38039 | 72.05662 | 20838 ft | 389 kts | 146° |
| 2026-04-25 16:42 | 50.35961 | 72.08373 | 21222 ft | 391 kts | 146° |
| 2026-04-25 16:42 | 50.33874 | 72.11091 | 21579 ft | 394 kts | 146° |
| 2026-04-25 16:42 | 50.31765 | 72.13833 | 21945 ft | 396 kts | 146° |
| 2026-04-25 16:42 | 50.29643 | 72.16589 | 22318 ft | 398 kts | 146° |
| 2026-04-25 16:43 | 50.27499 | 72.19371 | 22671 ft | 400 kts | 146° |
| 2026-04-25 16:43 | 50.25370 | 72.22130 | 22998 ft | 403 kts | 146° |
| 2026-04-25 16:43 | 50.23256 | 72.25064 | 23319 ft | 409 kts | 141° |
| 2026-04-25 16:43 | 50.21308 | 72.28284 | 23659 ft | 414 kts | 135° |
| 2026-04-25 16:44 | 50.19509 | 72.31825 | 23975 ft | 419 kts | 131° |
| 2026-04-25 16:44 | 50.17777 | 72.35483 | 24299 ft | 422 kts | 131° |
| 2026-04-25 16:44 | 50.16038 | 72.39188 | 24624 ft | 424 kts | 131° |
| 2026-04-25 16:44 | 50.14298 | 72.42890 | 24974 ft | 425 kts | 131° |
| 2026-04-25 16:45 | 50.13149 | 72.45328 | 25186 ft | 426 kts | 131° |
| 2026-04-25 16:45 | 50.10793 | 72.50304 | 25586 ft | 429 kts | 131° |
| 2026-04-25 16:45 | 50.09024 | 72.54031 | 25866 ft | 431 kts | 130° |
| 2026-04-25 16:45 | 50.07245 | 72.57773 | 26137 ft | 433 kts | 131° |
| 2026-04-25 16:46 | 50.05444 | 72.61551 | 26408 ft | 435 kts | 131° |
| 2026-04-25 16:46 | 50.03641 | 72.65326 | 26652 ft | 438 kts | 131° |
| 2026-04-25 16:46 | 50.01815 | 72.69147 | 26924 ft | 440 kts | 131° |
| 2026-04-25 16:46 | 50.01201 | 72.70428 | 27014 ft | 440 kts | 131° |
| 2026-04-25 16:47 | 49.98167 | 72.76756 | 27420 ft | 443 kts | 131° |
| 2026-04-25 16:47 | 49.96326 | 72.80591 | 27646 ft | 446 kts | 131° |
| 2026-04-25 16:47 | 49.94465 | 72.84460 | 27890 ft | 447 kts | 131° |
| 2026-04-25 16:47 | 49.92613 | 72.88299 | 28144 ft | 449 kts | 131° |
| 2026-04-25 16:48 | 49.90743 | 72.92181 | 28413 ft | 450 kts | 131° |
| 2026-04-25 16:48 | 49.88870 | 72.96060 | 28719 ft | 450 kts | 131° |
| 2026-04-25 16:48 | 49.87009 | 72.99902 | 28974 ft | 451 kts | 130° |
| 2026-04-25 16:48 | 49.85121 | 73.03799 | 29225 ft | 453 kts | 130° |
| 2026-04-25 16:49 | 49.83226 | 73.07704 | 29462 ft | 454 kts | 130° |
| 2026-04-25 16:49 | 49.81337 | 73.11592 | 29700 ft | 456 kts | 130° |
| 2026-04-25 16:49 | 49.79435 | 73.15503 | 29939 ft | 457 kts | 130° |
| 2026-04-25 16:49 | 49.77526 | 73.19417 | 30165 ft | 459 kts | 130° |
| 2026-04-25 16:50 | 49.76469 | 73.21581 | 30271 ft | 460 kts | 130° |